createdAt,value
2019-02-22T00:01:15.288Z,61.33
2019-02-22T00:03:42.198Z,60.37
2019-02-22T00:06:09.080Z,57.07
2019-02-22T00:08:35.961Z,59.40
2019-02-22T00:11:02.872Z,56.33
2019-02-22T00:13:29.736Z,58.60
2019-02-22T00:15:56.652Z,54.80
2019-02-22T00:18:23.528Z,58.33
2019-02-22T00:20:50.456Z,54.33
2019-02-22T00:23:17.315Z,51.47
2019-02-22T00:25:44.259Z,53.60
2019-02-22T00:28:11.139Z,50.93
2019-02-22T00:30:38.066Z,58.27
2019-02-22T00:33:04.996Z,53.17
2019-02-22T00:35:32.069Z,50.60
2019-02-22T00:37:59.346Z,54.10
2019-02-22T00:40:26.277Z,55.27
2019-02-22T00:42:53.165Z,50.70
2019-02-22T00:45:20.098Z,49.47
2019-02-22T00:47:46.974Z,52.20
2019-02-22T00:50:13.891Z,50.80
2019-02-22T00:52:40.775Z,55.07
2019-02-22T00:55:07.733Z,53.90
2019-02-22T00:57:34.609Z,58.63
2019-02-22T01:00:01.559Z,60.27
2019-02-22T01:02:28.455Z,51.63
2019-02-22T01:04:55.462Z,49.50
2019-02-22T01:07:23.202Z,55.13
2019-02-22T01:09:50.141Z,56.73
2019-02-22T01:12:17.024Z,51.47
2019-02-22T01:14:43.974Z,51.27
2019-02-22T01:17:10.853Z,55.43
2019-02-22T01:19:37.754Z,56.53
2019-02-22T01:22:05.101Z,57.20
2019-02-22T01:24:31.988Z,57.03
2019-02-22T01:26:58.927Z,55.37
2019-02-22T01:29:25.921Z,53.27
2019-02-22T01:31:52.858Z,55.37
2019-02-22T01:34:19.744Z,60.80
2019-02-22T01:36:46.686Z,62.73
2019-02-22T01:39:13.590Z,58.10
2019-02-22T01:41:40.506Z,57.90
2019-02-22T01:44:17.828Z,55.13
2019-02-22T01:46:44.790Z,62.20
2019-02-22T01:49:11.658Z,59.70
2019-02-22T01:51:38.603Z,53.53
2019-02-22T01:54:05.614Z,63.87
2019-02-22T01:56:32.542Z,67.00
2019-02-22T01:58:59.439Z,66.57
2019-02-22T02:01:26.342Z,60.50
2019-02-22T02:03:53.224Z,56.87
2019-02-22T02:06:20.168Z,61.10
2019-02-22T02:08:47.049Z,53.80
2019-02-22T02:11:13.969Z,62.40
2019-02-22T02:13:40.863Z,64.47
2019-02-22T02:16:07.784Z,56.90
2019-02-22T02:18:34.691Z,56.67
2019-02-22T02:21:01.570Z,57.57
2019-02-22T02:23:28.489Z,67.60
2019-02-22T02:25:55.391Z,57.50
2019-02-22T02:28:22.305Z,57.07
2019-02-22T02:30:49.207Z,58.50
2019-02-22T02:33:16.134Z,67.17
2019-02-22T02:35:43.019Z,66.83
2019-02-22T02:38:09.916Z,58.00
2019-02-22T02:40:36.822Z,59.63
2019-02-22T02:43:03.786Z,58.97
2019-02-22T02:45:30.685Z,61.00
2019-02-22T02:47:57.579Z,64.70
2019-02-22T02:50:24.442Z,56.33
2019-02-22T02:52:51.353Z,67.83
2019-02-22T02:55:29.178Z,63.53
2019-02-22T02:57:56.135Z,63.53
2019-02-22T03:00:23.012Z,59.53
2019-02-22T03:02:49.920Z,65.80
2019-02-22T03:05:16.796Z,61.90
2019-02-22T03:07:45.366Z,63.23
2019-02-22T03:10:12.260Z,63.67
2019-02-22T03:12:39.172Z,59.43
2019-02-22T03:15:07.225Z,63.33
2019-02-22T03:17:34.244Z,65.33
2019-02-22T03:20:01.148Z,59.87
2019-02-22T03:22:28.051Z,71.87
2019-02-22T03:24:54.950Z,67.33
2019-02-22T03:27:21.871Z,68.97
2019-02-22T03:29:48.748Z,63.00
2019-02-22T03:32:15.664Z,67.73
2019-02-22T03:34:42.576Z,57.80
2019-02-22T03:37:09.519Z,56.50
2019-02-22T03:39:36.413Z,62.13
2019-02-22T03:42:03.312Z,56.73
2019-02-22T03:44:30.246Z,62.60
2019-02-22T03:46:57.124Z,54.93
2019-02-22T03:49:24.051Z,60.60
2019-02-22T03:51:50.933Z,60.20
2019-02-22T03:54:17.867Z,60.73
2019-02-22T03:56:44.807Z,64.07
2019-02-22T03:59:11.759Z,59.27
2019-02-22T04:01:38.690Z,65.20
2019-02-22T04:04:05.638Z,59.73
2019-02-22T04:06:32.564Z,65.10
2019-02-22T04:08:59.526Z,61.43
2019-02-22T04:11:26.457Z,56.53
2019-02-22T04:13:53.417Z,60.30
2019-02-22T04:16:20.344Z,62.70
2019-02-22T04:18:47.327Z,65.73
2019-02-22T04:21:14.218Z,67.90
2019-02-22T04:23:41.162Z,69.03
2019-02-22T04:26:08.073Z,68.00
2019-02-22T04:28:35.015Z,65.40
2019-02-22T04:31:01.921Z,62.60
2019-02-22T04:33:28.852Z,79.47
2019-02-22T04:35:55.750Z,77.70
2019-02-22T04:38:22.680Z,68.30
2019-02-22T04:40:49.592Z,75.67
2019-02-22T04:43:16.539Z,80.67
2019-02-22T04:45:43.507Z,87.50
2019-02-22T04:48:10.469Z,76.27
2019-02-22T04:50:37.387Z,75.53
2019-02-22T04:53:04.421Z,84.00
2019-02-22T04:55:31.375Z,86.30
2019-02-22T04:57:58.295Z,93.63
2019-02-22T05:00:25.239Z,92.90
2019-02-22T05:02:52.157Z,89.00
2019-02-22T05:05:19.099Z,93.00
2019-02-22T05:07:46.094Z,79.67
2019-02-22T05:10:13.032Z,71.57
2019-02-22T05:12:39.949Z,78.57
2019-02-22T05:15:12.594Z,95.60
2019-02-22T05:17:35.905Z,90.83
2019-02-22T05:20:03.317Z,97.63
2019-02-22T05:22:30.223Z,87.43
2019-02-22T05:24:57.192Z,83.30
2019-02-22T05:27:24.136Z,90.50
2019-02-22T05:29:51.083Z,80.93
2019-02-22T05:32:18.036Z,88.57
2019-02-22T05:34:44.971Z,98.97
2019-02-22T05:37:11.879Z,96.27
2019-02-22T05:39:38.821Z,100.73
2019-02-22T05:42:05.728Z,94.63
2019-02-22T05:44:32.675Z,98.83
2019-02-22T05:47:00.605Z,101.80
2019-02-22T05:49:27.811Z,87.90
2019-02-22T05:51:54.729Z,89.20
2019-02-22T05:54:21.669Z,83.27
2019-02-22T05:56:48.613Z,88.10
2019-02-22T05:59:15.555Z,93.30
2019-02-22T06:01:42.483Z,88.77
2019-02-22T06:04:09.413Z,80.63
2019-02-22T06:06:36.329Z,88.90
2019-02-22T06:09:04.468Z,85.93
2019-02-22T06:11:31.414Z,95.93
2019-02-22T06:13:58.318Z,94.70
2019-02-22T06:16:25.261Z,89.27
2019-02-22T06:18:52.230Z,95.93
2019-02-22T06:21:19.176Z,98.70
2019-02-22T06:23:46.109Z,95.30
2019-02-22T06:26:13.040Z,94.30
2019-02-22T06:28:39.958Z,94.73
2019-02-22T06:31:06.907Z,107.07
2019-02-22T06:33:33.832Z,115.03
2019-02-22T06:36:00.795Z,99.33
2019-02-22T06:38:28.212Z,107.57
2019-02-22T06:40:55.214Z,101.70
2019-02-22T06:43:22.137Z,94.00
2019-02-22T06:45:49.074Z,79.30
2019-02-22T06:48:15.995Z,110.30
2019-02-22T06:50:43.094Z,98.20
2019-02-22T06:53:11.211Z,91.17
2019-02-22T06:55:38.160Z,98.73
2019-02-22T06:58:05.066Z,104.60
2019-02-22T07:00:31.996Z,103.93
2019-02-22T07:02:59.002Z,88.90
2019-02-22T07:05:25.959Z,110.60
2019-02-22T07:07:52.882Z,94.33
2019-02-22T07:10:19.841Z,93.40
2019-02-22T07:12:59.879Z,95.43
2019-02-22T07:15:26.819Z,89.73
2019-02-22T07:17:53.729Z,103.03
2019-02-22T07:20:20.709Z,88.47
2019-02-22T07:22:47.631Z,101.83
2019-02-22T07:25:14.633Z,106.20
2019-02-22T07:27:41.542Z,91.27
2019-02-22T07:30:08.868Z,87.93
2019-02-22T07:32:35.861Z,97.30
2019-02-22T07:35:02.897Z,88.63
2019-02-22T07:37:29.975Z,83.77
2019-02-22T07:39:56.905Z,92.40
2019-02-22T07:42:23.846Z,107.73
2019-02-22T07:44:50.789Z,90.23
2019-02-22T07:47:17.758Z,87.27
2019-02-22T07:49:44.684Z,87.17
2019-02-22T07:52:11.632Z,100.03
2019-02-22T07:54:38.531Z,94.53
2019-02-22T07:57:05.474Z,98.47
2019-02-22T07:59:32.382Z,93.90
2019-02-22T08:01:59.366Z,90.37
2019-02-22T08:04:26.283Z,81.73
2019-02-22T08:06:53.243Z,87.43
2019-02-22T08:09:20.150Z,99.57
2019-02-22T08:11:47.909Z,83.00
2019-02-22T08:14:15.158Z,90.43
2019-02-22T08:16:42.123Z,93.83
2019-02-22T08:19:11.343Z,90.83
2019-02-22T08:21:38.421Z,89.93
2019-02-22T08:24:05.363Z,91.13
2019-02-22T08:26:32.317Z,87.63
2019-02-22T08:28:59.405Z,89.93
2019-02-22T08:31:26.371Z,95.57
2019-02-22T08:33:53.284Z,96.87
2019-02-22T08:36:20.323Z,98.10
2019-02-22T08:38:47.248Z,92.33
2019-02-22T08:41:14.179Z,84.10
2019-02-22T08:43:41.176Z,92.83
2019-02-22T08:46:08.117Z,95.20
2019-02-22T08:48:35.065Z,86.80
2019-02-22T08:51:02.009Z,92.90
2019-02-22T08:53:28.943Z,98.80
2019-02-22T08:55:55.860Z,84.23
2019-02-22T08:58:22.816Z,83.73
2019-02-22T09:00:49.726Z,75.57
2019-02-22T09:03:16.668Z,83.40
2019-02-22T09:05:43.583Z,81.13
2019-02-22T09:08:10.525Z,79.83
2019-02-22T09:10:37.473Z,79.63
2019-02-22T09:13:04.424Z,75.23
2019-02-22T09:15:31.330Z,78.43
2019-02-22T09:17:58.308Z,73.17
2019-02-22T09:20:25.310Z,70.43
2019-02-22T09:22:52.238Z,77.33
2019-02-22T09:25:19.173Z,77.50
2019-02-22T09:27:46.135Z,65.93
2019-02-22T09:30:14.866Z,65.83
2019-02-22T09:32:41.866Z,60.77
2019-02-22T09:35:09.196Z,56.40
2019-02-22T09:37:36.269Z,60.30
2019-02-22T09:40:03.804Z,59.30
2019-02-22T09:42:30.907Z,56.27
2019-02-22T09:44:57.845Z,52.47
2019-02-22T09:47:24.775Z,60.57
2019-02-22T09:49:51.687Z,56.03
2019-02-22T09:52:18.640Z,65.47
2019-02-22T09:54:45.586Z,61.77
2019-02-22T09:57:12.623Z,57.83
2019-02-22T09:59:39.533Z,63.80
2019-02-22T10:02:06.509Z,63.83
2019-02-22T10:04:33.455Z,55.70
2019-02-22T10:07:00.406Z,62.13
2019-02-22T10:09:27.381Z,60.33
2019-02-22T10:11:54.300Z,58.93
2019-02-22T10:14:21.319Z,60.97
2019-02-22T10:16:48.187Z,61.93
2019-02-22T10:19:15.132Z,60.07
2019-02-22T10:21:42.058Z,62.57
2019-02-22T10:24:09.031Z,60.73
2019-02-22T10:26:35.995Z,62.63
2019-02-22T10:29:02.949Z,53.27
2019-02-22T10:31:29.876Z,59.20
2019-02-22T10:33:56.858Z,70.47
2019-02-22T10:36:23.834Z,61.07
2019-02-22T10:38:50.805Z,71.13
2019-02-22T10:41:17.745Z,60.73
2019-02-22T10:43:44.721Z,60.70
2019-02-22T10:46:11.639Z,59.87
2019-02-22T10:48:38.586Z,61.90
2019-02-22T10:51:05.509Z,62.13
2019-02-22T10:53:32.439Z,65.90
2019-02-22T10:55:59.351Z,67.03
2019-02-22T10:58:26.292Z,59.13
2019-02-22T11:00:53.217Z,65.57
2019-02-22T11:03:20.209Z,65.17
2019-02-22T11:05:47.121Z,60.73
2019-02-22T11:08:14.275Z,64.10
2019-02-22T11:10:41.268Z,63.93
2019-02-22T11:13:08.234Z,57.90
2019-02-22T11:15:35.311Z,57.47
2019-02-22T11:18:02.227Z,67.83
2019-02-22T11:20:29.234Z,68.03
2019-02-22T11:22:56.137Z,59.60
2019-02-22T11:25:23.155Z,71.60
2019-02-22T11:27:50.067Z,61.87
2019-02-22T11:30:17.023Z,61.47
2019-02-22T11:32:43.931Z,76.43
2019-02-22T11:35:10.922Z,92.07
2019-02-22T11:37:37.893Z,75.37
2019-02-22T11:40:04.988Z,70.17
2019-02-22T11:42:31.907Z,71.10
2019-02-22T11:44:58.852Z,71.10
2019-02-22T11:47:25.788Z,72.87
2019-02-22T11:49:52.743Z,69.23
2019-02-22T11:52:19.651Z,67.80
2019-02-22T11:54:46.625Z,66.73
2019-02-22T11:57:13.714Z,68.97
2019-02-22T11:59:40.681Z,80.17
2019-02-22T12:02:07.703Z,77.70
2019-02-22T12:04:34.784Z,67.57
2019-02-22T12:07:01.694Z,72.87
2019-02-22T12:09:28.679Z,76.27
2019-02-22T12:11:55.587Z,82.13
2019-02-22T12:14:22.555Z,76.20
2019-02-22T12:16:49.500Z,71.90
2019-02-22T12:19:16.483Z,68.63
2019-02-22T12:21:43.400Z,76.97
2019-02-22T12:24:10.340Z,79.80
2019-02-22T12:26:37.291Z,73.67
2019-02-22T12:29:04.240Z,77.13
2019-02-22T12:31:31.181Z,78.40
2019-02-22T12:33:58.143Z,83.17
2019-02-22T12:36:25.083Z,75.57
2019-02-22T12:38:52.001Z,64.70
2019-02-22T12:41:18.947Z,82.37
2019-02-22T12:43:45.861Z,77.67
2019-02-22T12:46:12.836Z,63.10
2019-02-22T12:48:39.755Z,61.67
2019-02-22T12:51:06.776Z,69.40
2019-02-22T12:53:33.734Z,55.73
2019-02-22T12:56:00.704Z,53.57
2019-02-22T12:58:27.645Z,61.57
2019-02-22T13:00:54.598Z,52.70
2019-02-22T13:03:21.521Z,57.23
2019-02-22T13:05:48.490Z,56.83
2019-02-22T13:08:15.416Z,57.83
2019-02-22T13:10:42.379Z,63.47
2019-02-22T13:13:09.306Z,53.10
2019-02-22T13:15:36.302Z,54.20
2019-02-22T13:18:03.265Z,45.27
2019-02-22T13:20:30.380Z,43.43
2019-02-22T13:22:57.295Z,43.10
2019-02-22T13:25:24.276Z,42.47
2019-02-22T13:27:51.198Z,47.60
2019-02-22T13:30:18.121Z,44.80
2019-02-22T13:32:45.077Z,46.80
2019-02-22T13:35:12.007Z,54.93
2019-02-22T13:37:38.946Z,42.73
2019-02-22T13:40:07.496Z,41.13
2019-02-22T13:42:34.582Z,40.40
2019-02-22T13:45:01.492Z,35.27
2019-02-22T13:47:28.436Z,42.37
2019-02-22T13:49:55.347Z,39.60
2019-02-22T13:52:22.313Z,42.10
2019-02-22T13:54:49.213Z,33.63
2019-02-22T13:57:16.168Z,42.90
2019-02-22T13:59:43.091Z,35.83
2019-02-22T14:02:10.037Z,35.90
2019-02-22T14:04:36.952Z,40.00
2019-02-22T14:07:03.895Z,43.50
2019-02-22T14:09:30.805Z,38.33
2019-02-22T14:11:57.848Z,35.30
2019-02-22T14:14:24.748Z,50.10
2019-02-22T14:16:51.706Z,50.80
2019-02-22T14:19:18.710Z,37.93
2019-02-22T14:21:45.686Z,38.73
2019-02-22T14:24:12.561Z,41.00
2019-02-22T14:26:39.529Z,37.73
2019-02-22T14:29:06.472Z,43.17
2019-02-22T14:31:33.426Z,44.17
2019-02-22T14:34:00.331Z,54.67
2019-02-22T14:36:29.079Z,41.10
2019-02-22T14:38:56.254Z,36.10
2019-02-22T14:41:23.190Z,32.90
2019-02-22T14:43:50.146Z,35.20
2019-02-22T14:46:25.560Z,34.27
2019-02-22T14:48:45.907Z,32.87
2019-02-22T14:51:15.117Z,32.40
2019-02-22T14:53:41.668Z,31.10
2019-02-22T14:56:08.582Z,33.90
2019-02-22T14:58:35.531Z,32.03
2019-02-22T15:01:02.456Z,35.00
2019-02-22T15:03:29.380Z,28.23
2019-02-22T15:05:56.357Z,28.97
2019-02-22T15:08:23.305Z,24.03
2019-02-22T15:10:50.279Z,24.40
2019-02-22T15:13:17.232Z,24.00
2019-02-22T15:16:08.215Z,29.37
2019-02-22T15:18:35.153Z,27.13
2019-02-22T15:21:02.183Z,24.47
2019-02-22T15:23:29.143Z,29.43
2019-02-22T15:25:56.116Z,27.53
2019-02-22T15:28:23.067Z,20.93
2019-02-22T15:30:50.008Z,23.63
2019-02-22T15:33:16.937Z,24.37
2019-02-22T15:35:43.858Z,26.50
2019-02-22T15:38:10.792Z,24.93
2019-02-22T15:40:39.376Z,24.23
2019-02-22T15:43:06.707Z,23.30
2019-02-22T15:45:33.616Z,27.60
2019-02-22T15:48:00.576Z,25.90
2019-02-22T15:50:27.541Z,22.23
2019-02-22T15:52:54.691Z,25.50
2019-02-22T15:55:21.613Z,24.47
2019-02-22T15:57:48.574Z,24.13
2019-02-22T16:00:18.896Z,18.33
2019-02-22T16:02:45.830Z,19.43
2019-02-22T16:05:32.411Z,24.10
2019-02-22T16:07:59.546Z,19.23
2019-02-22T16:10:26.474Z,21.13
2019-02-22T16:12:53.435Z,20.43
2019-02-22T16:15:20.408Z,12.77
2019-02-22T16:17:47.331Z,13.20
2019-02-22T16:20:14.371Z,17.73
2019-02-22T16:22:41.314Z,15.60
2019-02-22T16:25:18.608Z,13.60
2019-02-22T16:27:37.144Z,12.87
2019-02-22T16:30:07.344Z,14.13
2019-02-22T16:32:34.253Z,14.87
2019-02-22T16:35:01.199Z,13.37
2019-02-22T16:37:28.133Z,14.90
2019-02-22T16:39:55.079Z,14.60
2019-02-22T16:42:21.998Z,15.33
2019-02-22T16:44:48.951Z,18.87
2019-02-22T16:47:15.860Z,15.37
2019-02-22T16:49:42.810Z,16.17
2019-02-22T16:52:09.724Z,22.83
2019-02-22T16:54:36.656Z,18.67
2019-02-22T16:57:03.602Z,20.53
2019-02-22T16:59:30.551Z,26.47
2019-02-22T17:01:57.454Z,16.10
2019-02-22T17:04:24.403Z,14.33
2019-02-22T17:06:51.330Z,35.00
2019-02-22T17:09:18.329Z,29.00
2019-02-22T17:11:45.216Z,25.90
2019-02-22T17:14:12.176Z,19.83
2019-02-22T17:16:45.855Z,13.80
2019-02-22T17:19:08.223Z,18.80
2019-02-22T17:21:35.220Z,12.33
2019-02-22T17:24:02.188Z,11.10
2019-02-22T17:26:29.139Z,12.37
2019-02-22T17:28:56.097Z,11.00
2019-02-22T17:31:23.083Z,10.80
2019-02-22T17:33:49.980Z,12.43
2019-02-22T17:36:26.296Z,15.57
2019-02-22T17:38:45.807Z,11.23
2019-02-22T17:41:12.795Z,14.73
2019-02-22T17:43:39.715Z,11.20
2019-02-22T17:46:06.654Z,19.17
2019-02-22T17:48:33.591Z,14.80
2019-02-22T17:51:01.108Z,12.23
2019-02-22T17:53:28.025Z,15.70
2019-02-22T17:55:54.995Z,11.07
2019-02-22T17:58:24.712Z,16.60
2019-02-22T18:00:50.906Z,11.20
2019-02-22T18:03:17.832Z,13.17
2019-02-22T18:05:44.801Z,16.10
2019-02-22T18:08:11.709Z,16.07
2019-02-22T18:10:38.668Z,14.60
2019-02-22T18:13:05.581Z,18.73
2019-02-22T18:15:32.534Z,19.60
2019-02-22T18:17:59.454Z,14.87
2019-02-22T18:20:26.420Z,16.20
2019-02-22T18:22:53.394Z,16.60
2019-02-22T18:25:20.407Z,23.63
2019-02-22T18:27:47.314Z,19.80
2019-02-22T18:30:14.297Z,18.10
2019-02-22T18:32:41.212Z,21.37
2019-02-22T18:35:08.351Z,22.60
2019-02-22T18:37:35.266Z,20.37
2019-02-22T18:40:02.238Z,24.70
2019-02-22T18:42:29.180Z,30.00
2019-02-22T18:44:56.175Z,34.80
2019-02-22T18:47:23.119Z,45.47
2019-02-22T18:49:50.029Z,29.17
2019-02-22T18:52:17.004Z,29.30
2019-02-22T18:54:46.166Z,16.77
2019-02-22T18:57:12.801Z,15.40
2019-02-22T18:59:39.709Z,16.23
2019-02-22T19:02:06.654Z,13.10
2019-02-22T19:04:33.607Z,19.13
2019-02-22T19:07:01.014Z,13.27
2019-02-22T19:09:27.912Z,16.03
2019-02-22T19:11:54.846Z,14.73
2019-02-22T19:14:21.755Z,14.00
2019-02-22T19:16:48.691Z,16.00
2019-02-22T19:19:15.623Z,20.87
2019-02-22T19:21:42.561Z,17.50
2019-02-22T19:24:09.486Z,17.13
2019-02-22T19:26:36.460Z,14.87
2019-02-22T19:29:03.381Z,17.47
2019-02-22T19:31:30.349Z,18.00
2019-02-22T19:33:57.272Z,19.33
2019-02-22T19:36:24.241Z,17.10
2019-02-22T19:38:51.180Z,18.43
2019-02-22T19:41:18.203Z,19.70
2019-02-22T19:43:45.120Z,19.77
2019-02-22T19:46:12.443Z,19.23
2019-02-22T19:48:39.385Z,21.43
2019-02-22T19:51:06.350Z,21.50
2019-02-22T19:53:33.400Z,23.00
2019-02-22T19:56:00.386Z,22.07
2019-02-22T19:58:27.323Z,27.00
2019-02-22T20:00:54.244Z,25.23
2019-02-22T20:03:21.209Z,23.70
2019-02-22T20:05:48.150Z,21.67
2019-02-22T20:08:15.100Z,24.00
2019-02-22T20:10:42.011Z,25.53
2019-02-22T20:13:09.129Z,23.17
2019-02-22T20:15:36.326Z,19.23
2019-02-22T20:18:05.639Z,27.00
2019-02-22T20:20:33.391Z,19.90
2019-02-22T20:23:00.534Z,23.70
2019-02-22T20:25:27.654Z,22.37
2019-02-22T20:27:54.668Z,23.80
2019-02-22T20:30:21.964Z,25.13
2019-02-22T20:32:49.420Z,24.73
2019-02-22T20:35:18.039Z,24.80
2019-02-22T20:37:52.689Z,23.50
2019-02-22T20:40:14.125Z,27.07
2019-02-22T20:42:41.326Z,26.13
2019-02-22T20:45:08.508Z,25.37
2019-02-22T20:47:35.799Z,22.20
2019-02-22T20:50:03.429Z,24.50
2019-02-22T20:52:30.673Z,25.60
2019-02-22T20:54:57.670Z,35.80
2019-02-22T20:57:24.616Z,28.40
2019-02-22T20:59:51.538Z,25.60
2019-02-22T21:02:18.502Z,28.30
2019-02-22T21:04:45.414Z,27.73
2019-02-22T21:07:12.323Z,29.07
2019-02-22T21:09:39.295Z,27.00
2019-02-22T21:12:06.197Z,28.27
2019-02-22T21:14:33.159Z,27.60
2019-02-22T21:17:00.084Z,27.20
2019-02-22T21:19:27.059Z,22.17
2019-02-22T21:21:53.999Z,26.07
2019-02-22T21:24:21.115Z,26.00
2019-02-22T21:26:48.297Z,24.60
2019-02-22T21:29:15.321Z,25.20
2019-02-22T21:31:43.319Z,27.93
2019-02-22T21:34:10.297Z,24.20
2019-02-22T21:36:37.234Z,27.03
2019-02-22T21:39:05.213Z,25.83
2019-02-22T21:41:32.194Z,23.60
2019-02-22T21:43:59.168Z,24.43
2019-02-22T21:46:28.739Z,24.50
2019-02-22T21:48:55.414Z,23.67
2019-02-22T21:51:22.559Z,24.03
2019-02-22T21:53:49.644Z,22.67
2019-02-22T21:56:16.565Z,26.80
2019-02-22T21:58:43.608Z,21.17
2019-02-22T22:01:10.528Z,21.60
2019-02-22T22:03:37.503Z,21.63
2019-02-22T22:06:04.439Z,22.90
2019-02-22T22:08:31.510Z,22.03
2019-02-22T22:10:58.449Z,21.00
2019-02-22T22:13:25.400Z,23.93
2019-02-22T22:15:52.396Z,20.27
2019-02-22T22:18:19.533Z,23.67
2019-02-22T22:20:46.709Z,21.00
2019-02-22T22:23:13.621Z,23.13
2019-02-22T22:25:40.660Z,24.93
2019-02-22T22:28:07.587Z,23.67
2019-02-22T22:30:34.523Z,23.90
2019-02-22T22:33:01.432Z,25.47
2019-02-22T22:35:28.404Z,22.10
2019-02-22T22:37:55.322Z,22.67
2019-02-22T22:40:22.288Z,20.33
2019-02-22T22:42:49.204Z,22.63
2019-02-22T22:45:16.272Z,21.97
2019-02-22T22:47:43.209Z,23.17
2019-02-22T22:50:10.728Z,26.90
2019-02-22T22:52:37.666Z,24.83
2019-02-22T22:55:04.709Z,21.80
2019-02-22T22:57:31.618Z,24.47
2019-02-22T22:59:58.562Z,24.23
2019-02-22T23:02:26.100Z,26.47
2019-02-22T23:04:53.052Z,24.10
2019-02-22T23:07:19.976Z,22.83
2019-02-22T23:09:46.985Z,26.73
2019-02-22T23:12:13.893Z,21.40
2019-02-22T23:14:40.850Z,27.03
2019-02-22T23:17:07.800Z,23.13
2019-02-22T23:19:34.711Z,23.90
2019-02-22T23:22:01.673Z,27.20
2019-02-22T23:24:28.576Z,28.47
2019-02-22T23:26:55.526Z,24.30
2019-02-22T23:29:22.447Z,21.90
2019-02-22T23:31:49.393Z,28.90
2019-02-22T23:34:16.289Z,25.50
2019-02-22T23:36:43.227Z,26.10
2019-02-22T23:39:10.137Z,22.80
2019-02-22T23:41:37.114Z,25.90
2019-02-22T23:44:04.034Z,22.70
2019-02-22T23:46:30.967Z,25.10
2019-02-22T23:48:57.875Z,24.17
2019-02-22T23:51:24.835Z,26.87
2019-02-22T23:53:51.770Z,24.63
2019-02-22T23:56:18.716Z,25.47
2019-02-22T23:58:45.623Z,22.23
